createdAt,value
2019-03-26T00:01:49.747Z,16.80
2019-03-26T00:04:19.621Z,14.90
2019-03-26T00:06:49.504Z,14.87
2019-03-26T00:09:19.375Z,11.70
2019-03-26T00:11:49.462Z,12.97
2019-03-26T00:14:19.413Z,13.60
2019-03-26T00:16:49.282Z,14.30
2019-03-26T00:19:19.041Z,15.10
2019-03-26T00:21:48.817Z,17.50
2019-03-26T00:24:18.692Z,14.73
2019-03-26T00:26:48.569Z,17.10
2019-03-26T00:29:18.349Z,15.40
2019-03-26T00:31:48.128Z,19.13
2019-03-26T00:34:19.540Z,15.63
2019-03-26T00:36:49.389Z,17.00
2019-03-26T00:39:19.147Z,10.77
2019-03-26T00:41:48.920Z,15.77
2019-03-26T00:44:18.686Z,16.43
2019-03-26T00:46:48.431Z,13.57
2019-03-26T00:49:18.321Z,14.03
2019-03-26T00:51:48.087Z,13.03
2019-03-26T00:54:17.853Z,13.73
2019-03-26T00:56:47.620Z,9.93
2019-03-26T00:59:17.387Z,12.53
2019-03-26T01:01:47.214Z,11.77
2019-03-26T01:04:16.990Z,14.23
2019-03-26T01:06:46.855Z,11.90
2019-03-26T01:09:16.630Z,13.47
2019-03-26T01:11:46.408Z,7.47
2019-03-26T01:14:16.168Z,16.07
2019-03-26T01:16:45.941Z,20.20
2019-03-26T01:19:15.720Z,22.43
2019-03-26T01:21:45.490Z,27.00
2019-03-26T01:24:15.270Z,18.00
2019-03-26T01:26:45.043Z,13.97
2019-03-26T01:29:14.810Z,13.30
2019-03-26T01:31:44.586Z,16.50
2019-03-26T01:34:14.354Z,12.90
2019-03-26T01:36:44.110Z,12.40
2019-03-26T01:39:13.885Z,15.40
2019-03-26T01:41:43.658Z,12.50
2019-03-26T01:44:13.418Z,12.43
2019-03-26T01:46:43.198Z,12.07
2019-03-26T01:49:12.984Z,10.87
2019-03-26T01:51:42.761Z,11.43
2019-03-26T01:54:12.537Z,10.27
2019-03-26T01:56:42.303Z,10.60
2019-03-26T01:59:12.075Z,10.47
2019-03-26T02:01:41.841Z,15.93
2019-03-26T02:04:11.599Z,15.57
2019-03-26T02:06:41.368Z,18.27
2019-03-26T02:09:11.134Z,14.47
2019-03-26T02:11:40.910Z,13.57
2019-03-26T02:14:10.688Z,11.37
2019-03-26T02:16:40.600Z,11.57
2019-03-26T02:19:10.409Z,14.30
2019-03-26T02:21:40.176Z,9.80
2019-03-26T02:24:09.943Z,12.13
2019-03-26T02:26:39.719Z,12.67
2019-03-26T02:29:09.458Z,16.00
2019-03-26T02:31:39.222Z,12.93
2019-03-26T02:34:08.986Z,14.80
2019-03-26T02:36:38.759Z,12.33
2019-03-26T02:39:08.523Z,10.80
2019-03-26T02:41:38.382Z,11.90
2019-03-26T02:44:08.235Z,11.97
2019-03-26T02:46:38.028Z,9.57
2019-03-26T02:49:07.793Z,9.43
2019-03-26T02:51:37.557Z,10.67
2019-03-26T02:54:07.329Z,14.33
2019-03-26T02:56:37.100Z,13.13
2019-03-26T02:59:06.879Z,12.20
2019-03-26T03:01:36.645Z,10.80
2019-03-26T03:04:06.413Z,14.07
2019-03-26T03:06:36.191Z,11.27
2019-03-26T03:09:07.362Z,13.87
2019-03-26T03:11:37.175Z,14.80
2019-03-26T03:14:06.957Z,12.27
2019-03-26T03:16:36.745Z,12.13
2019-03-26T03:19:06.493Z,15.73
2019-03-26T03:21:36.222Z,15.40
2019-03-26T03:24:05.996Z,18.57
2019-03-26T03:26:35.733Z,14.93
2019-03-26T03:29:05.494Z,14.73
2019-03-26T03:31:35.294Z,12.33
2019-03-26T03:34:05.063Z,15.10
2019-03-26T03:36:34.811Z,18.03
2019-03-26T03:39:06.609Z,19.93
2019-03-26T03:41:36.400Z,18.57
2019-03-26T03:44:06.489Z,17.53
2019-03-26T03:46:36.268Z,14.93
2019-03-26T03:49:06.049Z,13.83
2019-03-26T03:51:35.786Z,22.33
2019-03-26T03:54:05.561Z,16.47
2019-03-26T03:56:35.304Z,15.23
2019-03-26T03:59:05.190Z,14.13
2019-03-26T04:01:35.010Z,24.90
2019-03-26T04:04:04.776Z,15.50
2019-03-26T04:06:34.524Z,19.30
2019-03-26T04:09:05.101Z,26.83
2019-03-26T04:11:34.825Z,17.03
2019-03-26T04:14:04.593Z,15.73
2019-03-26T04:16:34.413Z,21.30
2019-03-26T04:19:04.172Z,19.97
2019-03-26T04:21:33.969Z,25.63
2019-03-26T04:24:03.736Z,19.43
2019-03-26T04:26:33.512Z,21.57
2019-03-26T04:29:03.278Z,18.33
2019-03-26T04:31:33.045Z,16.20
2019-03-26T04:34:02.816Z,17.60
2019-03-26T04:36:32.592Z,22.20
2019-03-26T04:39:02.361Z,18.50
2019-03-26T04:41:32.127Z,19.97
2019-03-26T04:44:01.922Z,21.80
2019-03-26T04:46:31.679Z,17.70
2019-03-26T04:49:01.443Z,18.93
2019-03-26T04:51:31.212Z,21.57
2019-03-26T04:54:00.977Z,16.60
2019-03-26T04:56:30.740Z,22.17
2019-03-26T04:59:00.599Z,20.37
2019-03-26T05:01:30.367Z,20.13
2019-03-26T05:04:00.134Z,18.23
2019-03-26T05:06:37.986Z,22.77
2019-03-26T05:09:01.779Z,20.10
2019-03-26T05:11:31.550Z,22.37
2019-03-26T05:14:01.330Z,26.30
2019-03-26T05:16:31.115Z,35.60
2019-03-26T05:19:00.904Z,42.20
2019-03-26T05:21:30.669Z,37.27
2019-03-26T05:24:00.543Z,33.03
2019-03-26T05:26:30.333Z,25.63
2019-03-26T05:29:00.091Z,33.40
2019-03-26T05:31:29.870Z,31.10
2019-03-26T05:33:59.643Z,23.57
2019-03-26T05:36:29.416Z,20.63
2019-03-26T05:38:59.183Z,20.70
2019-03-26T05:41:28.958Z,20.93
2019-03-26T05:43:58.737Z,23.37
2019-03-26T05:46:28.611Z,24.43
2019-03-26T05:48:58.393Z,23.07
2019-03-26T05:51:28.178Z,28.87
2019-03-26T05:53:57.947Z,21.80
2019-03-26T05:56:30.505Z,22.27
2019-03-26T05:58:59.179Z,25.87
2019-03-26T06:01:28.950Z,27.23
2019-03-26T06:03:58.724Z,23.10
2019-03-26T06:06:28.489Z,23.03
2019-03-26T06:08:58.253Z,22.30
2019-03-26T06:11:28.036Z,23.37
2019-03-26T06:13:57.827Z,27.67
2019-03-26T06:16:37.898Z,26.73
2019-03-26T06:19:00.193Z,23.40
2019-03-26T06:21:30.294Z,24.90
2019-03-26T06:24:00.577Z,23.83
2019-03-26T06:26:30.356Z,21.43
2019-03-26T06:29:01.305Z,25.70
2019-03-26T06:31:31.222Z,20.17
2019-03-26T06:34:00.996Z,23.03
2019-03-26T06:36:30.771Z,22.17
2019-03-26T06:39:00.556Z,19.87
2019-03-26T06:41:30.327Z,19.70
2019-03-26T06:44:00.101Z,19.20
2019-03-26T06:46:29.872Z,20.03
2019-03-26T06:48:59.634Z,17.30
2019-03-26T06:51:29.391Z,19.47
2019-03-26T06:53:59.167Z,14.67
2019-03-26T06:56:28.937Z,16.00
2019-03-26T06:58:58.714Z,18.27
2019-03-26T07:01:28.486Z,19.23
2019-03-26T07:03:58.251Z,18.00
2019-03-26T07:06:28.020Z,16.97
2019-03-26T07:08:57.794Z,20.60
2019-03-26T07:11:27.565Z,25.70
2019-03-26T07:13:57.439Z,19.43
2019-03-26T07:16:28.643Z,14.60
2019-03-26T07:18:58.420Z,14.10
2019-03-26T07:21:28.204Z,13.33
2019-03-26T07:23:57.973Z,14.53
2019-03-26T07:26:27.752Z,15.37
2019-03-26T07:28:57.518Z,13.30
2019-03-26T07:31:27.366Z,16.77
2019-03-26T07:33:57.139Z,14.83
2019-03-26T07:36:26.910Z,14.27
2019-03-26T07:38:56.689Z,12.20
2019-03-26T07:41:26.465Z,15.53
2019-03-26T07:43:56.225Z,14.07
2019-03-26T07:46:26.002Z,13.97
2019-03-26T07:48:55.777Z,14.63
2019-03-26T07:51:25.564Z,13.00
2019-03-26T07:53:55.335Z,15.77
2019-03-26T07:56:25.123Z,16.17
2019-03-26T07:58:54.898Z,16.60
2019-03-26T08:01:24.666Z,19.83
2019-03-26T08:03:54.433Z,17.80
2019-03-26T08:06:24.211Z,16.93
2019-03-26T08:08:53.972Z,14.43
2019-03-26T08:11:23.753Z,17.80
2019-03-26T08:13:53.545Z,18.70
2019-03-26T08:16:23.381Z,14.63
2019-03-26T08:18:53.130Z,20.33
2019-03-26T08:21:22.913Z,16.43
2019-03-26T08:23:52.692Z,19.90
2019-03-26T08:26:22.467Z,17.67
2019-03-26T08:28:52.235Z,18.03
2019-03-26T08:31:22.106Z,18.27
2019-03-26T08:33:51.866Z,26.27
2019-03-26T08:36:21.640Z,25.40
2019-03-26T08:38:51.423Z,23.40
2019-03-26T08:41:21.197Z,25.07
2019-03-26T08:43:51.174Z,26.40
2019-03-26T08:46:20.952Z,23.37
2019-03-26T08:48:50.740Z,24.87
2019-03-26T08:51:20.500Z,21.13
2019-03-26T08:53:50.322Z,23.83
2019-03-26T08:56:20.085Z,25.10
2019-03-26T08:58:50.166Z,19.33
2019-03-26T09:01:19.938Z,19.87
2019-03-26T09:03:49.710Z,19.50
2019-03-26T09:06:19.574Z,19.40
2019-03-26T09:08:51.635Z,15.40
2019-03-26T09:11:21.406Z,35.07
2019-03-26T09:13:51.246Z,28.83
2019-03-26T09:16:21.165Z,17.27
2019-03-26T09:18:50.950Z,10.57
2019-03-26T09:21:20.714Z,6.50
2019-03-26T09:23:50.481Z,10.73
2019-03-26T09:26:20.247Z,9.00
2019-03-26T09:28:50.008Z,10.13
2019-03-26T09:31:21.206Z,6.73
2019-03-26T09:33:55.767Z,6.70
2019-03-26T09:36:25.578Z,4.37
2019-03-26T09:38:55.380Z,13.80
2019-03-26T09:41:25.188Z,9.07
2019-03-26T09:43:55.054Z,11.43
2019-03-26T09:46:24.831Z,6.67
2019-03-26T09:48:55.198Z,12.30
2019-03-26T09:51:24.977Z,13.80
2019-03-26T09:53:54.750Z,6.97
2019-03-26T09:56:30.558Z,8.33
2019-03-26T09:58:55.986Z,16.47
2019-03-26T10:01:25.758Z,12.40
2019-03-26T10:03:55.610Z,14.50
2019-03-26T10:06:25.391Z,11.83
2019-03-26T10:08:56.734Z,12.13
2019-03-26T10:11:26.497Z,15.43
2019-03-26T10:14:00.655Z,12.57
2019-03-26T10:16:30.418Z,11.47
2019-03-26T10:19:00.205Z,8.23
2019-03-26T10:21:30.047Z,10.33
2019-03-26T10:23:59.802Z,14.37
2019-03-26T10:26:29.675Z,11.00
2019-03-26T10:28:59.454Z,23.17
2019-03-26T10:31:29.228Z,13.77
2019-03-26T10:33:58.993Z,10.33
2019-03-26T10:36:28.761Z,11.20
2019-03-26T10:39:05.637Z,10.50
2019-03-26T10:41:30.000Z,14.70
2019-03-26T10:43:59.735Z,16.13
2019-03-26T10:46:29.498Z,11.13
2019-03-26T10:48:59.259Z,37.03
2019-03-26T10:51:29.030Z,35.00
2019-03-26T10:53:58.783Z,31.40
2019-03-26T10:56:28.559Z,37.20
2019-03-26T10:58:58.296Z,29.17
2019-03-26T11:01:28.072Z,24.07
2019-03-26T11:03:57.895Z,11.70
2019-03-26T11:06:27.660Z,14.17
2019-03-26T11:08:57.397Z,12.53
2019-03-26T11:11:27.161Z,13.90
2019-03-26T11:13:58.824Z,8.30
2019-03-26T11:16:28.392Z,14.07
2019-03-26T11:18:58.140Z,12.27
2019-03-26T11:21:27.909Z,13.53
2019-03-26T11:23:57.656Z,12.60
2019-03-26T11:26:27.431Z,13.30
2019-03-26T11:28:57.168Z,22.07
2019-03-26T11:31:29.975Z,12.23
2019-03-26T11:33:58.384Z,13.17
2019-03-26T11:36:28.153Z,19.40
2019-03-26T11:38:57.893Z,8.93
2019-03-26T11:41:27.667Z,9.37
2019-03-26T11:43:57.409Z,9.13
2019-03-26T11:46:27.174Z,10.17
2019-03-26T11:48:56.944Z,11.13
2019-03-26T11:51:26.715Z,19.43
2019-03-26T11:53:56.497Z,25.17
2019-03-26T11:56:26.276Z,19.37
2019-03-26T11:58:56.057Z,17.47
2019-03-26T12:01:25.829Z,15.20
2019-03-26T12:03:55.589Z,15.60
2019-03-26T12:06:25.348Z,8.83
2019-03-26T12:08:55.081Z,14.27
2019-03-26T12:11:24.852Z,12.13
2019-03-26T12:13:54.585Z,12.93
2019-03-26T12:16:24.352Z,7.83
2019-03-26T12:18:54.093Z,16.10
2019-03-26T12:21:23.869Z,7.83
2019-03-26T12:23:53.597Z,9.17
2019-03-26T12:26:23.368Z,9.33
2019-03-26T12:28:53.098Z,8.43
2019-03-26T12:31:22.856Z,13.83
2019-03-26T12:33:52.591Z,9.10
2019-03-26T12:36:22.352Z,13.50
2019-03-26T12:38:52.094Z,10.20
2019-03-26T12:41:21.853Z,5.53
2019-03-26T12:43:51.619Z,10.43
2019-03-26T12:46:21.382Z,10.63
2019-03-26T12:48:51.160Z,12.03
2019-03-26T12:51:20.925Z,7.80
2019-03-26T12:53:50.695Z,8.73
2019-03-26T12:56:20.456Z,6.50
2019-03-26T12:58:50.216Z,9.50
2019-03-26T13:01:19.969Z,14.10
2019-03-26T13:03:49.746Z,14.87
2019-03-26T13:06:19.510Z,14.47
2019-03-26T13:08:49.274Z,16.67
2019-03-26T13:11:19.034Z,12.00
2019-03-26T13:13:48.812Z,11.03
2019-03-26T13:16:18.578Z,11.33
2019-03-26T13:18:48.358Z,7.80
2019-03-26T13:21:18.124Z,6.77
2019-03-26T13:23:47.899Z,10.90
2019-03-26T13:26:18.315Z,7.57
2019-03-26T13:28:49.523Z,6.17
2019-03-26T13:31:19.302Z,6.53
2019-03-26T13:33:49.082Z,14.23
2019-03-26T13:36:19.159Z,8.00
2019-03-26T13:38:48.935Z,10.47
2019-03-26T13:41:18.723Z,15.33
2019-03-26T13:43:48.494Z,8.90
2019-03-26T13:46:18.261Z,7.33
2019-03-26T13:48:48.026Z,11.53
2019-03-26T13:51:17.794Z,11.10
2019-03-26T13:53:47.693Z,5.73
2019-03-26T13:56:17.446Z,13.17
2019-03-26T13:58:47.213Z,9.43
2019-03-26T14:01:16.988Z,9.97
2019-03-26T14:03:47.754Z,19.17
2019-03-26T14:06:17.517Z,16.87
2019-03-26T14:08:47.287Z,9.27
2019-03-26T14:11:17.148Z,9.67
2019-03-26T14:13:46.913Z,7.13
2019-03-26T14:16:16.713Z,22.23
2019-03-26T14:18:46.478Z,30.93
2019-03-26T14:21:16.258Z,19.37
2019-03-26T14:23:46.029Z,20.50
2019-03-26T14:26:15.791Z,19.73
2019-03-26T14:28:45.567Z,53.13
2019-03-26T14:31:15.352Z,16.70
2019-03-26T14:33:45.130Z,18.00
2019-03-26T14:36:14.917Z,24.60
2019-03-26T14:38:44.992Z,19.17
2019-03-26T14:41:14.753Z,20.30
2019-03-26T14:43:44.518Z,32.47
2019-03-26T14:46:14.282Z,12.33
2019-03-26T14:48:44.045Z,21.97
2019-03-26T14:51:13.806Z,9.37
2019-03-26T14:53:44.587Z,20.53
2019-03-26T14:56:14.355Z,34.33
2019-03-26T14:58:44.118Z,25.33
2019-03-26T15:01:13.895Z,26.40
2019-03-26T15:03:43.670Z,23.17
2019-03-26T15:06:13.454Z,24.90
2019-03-26T15:08:43.237Z,14.67
2019-03-26T15:11:13.003Z,18.17
2019-03-26T15:13:42.834Z,22.77
2019-03-26T15:16:12.671Z,18.30
2019-03-26T15:18:42.447Z,11.10
2019-03-26T15:21:12.232Z,9.67
2019-03-26T15:23:50.015Z,9.73
2019-03-26T15:26:19.787Z,7.80
2019-03-26T15:28:49.563Z,3.90
2019-03-26T15:31:19.445Z,2.33
2019-03-26T15:33:49.232Z,3.07
2019-03-26T15:36:19.066Z,3.00
2019-03-26T15:38:48.973Z,14.73
2019-03-26T15:41:21.736Z,16.33
2019-03-26T15:43:50.241Z,5.50
2019-03-26T15:46:20.012Z,16.00
2019-03-26T15:48:49.782Z,5.97
2019-03-26T15:51:19.561Z,21.03
2019-03-26T15:53:49.381Z,9.83
2019-03-26T15:56:19.255Z,11.67
2019-03-26T15:58:49.000Z,16.50
2019-03-26T16:01:18.789Z,16.87
2019-03-26T16:03:48.536Z,8.03
2019-03-26T16:06:18.348Z,11.63
2019-03-26T16:08:48.187Z,9.33
2019-03-26T16:11:17.964Z,13.03
2019-03-26T16:13:47.748Z,10.97
2019-03-26T16:16:17.523Z,18.27
2019-03-26T16:18:47.298Z,7.50
2019-03-26T16:21:17.077Z,10.80
2019-03-26T16:23:46.866Z,4.00
2019-03-26T16:26:16.666Z,11.50
2019-03-26T16:28:46.495Z,17.97
2019-03-26T16:31:16.264Z,10.10
2019-03-26T16:33:47.243Z,12.60
2019-03-26T16:36:18.511Z,14.80
2019-03-26T16:38:48.302Z,12.67
2019-03-26T16:41:19.657Z,11.77
2019-03-26T16:43:51.059Z,6.90
2019-03-26T16:46:20.837Z,5.60
2019-03-26T16:48:54.941Z,5.93
2019-03-26T16:51:27.533Z,10.50
2019-03-26T16:54:06.366Z,7.20
2019-03-26T16:56:38.807Z,11.80
2019-03-26T16:59:13.663Z,16.87
2019-03-26T17:01:46.653Z,19.00
2019-03-26T17:04:19.471Z,23.77
2019-03-26T17:06:49.259Z,21.23
2019-03-26T17:09:21.531Z,18.70
2019-03-26T17:12:03.021Z,29.03
2019-03-26T17:14:32.374Z,8.60
2019-03-26T17:17:06.307Z,8.33
2019-03-26T17:19:36.084Z,8.10
2019-03-26T17:22:05.869Z,11.77
2019-03-26T17:24:35.665Z,9.03
2019-03-26T17:27:07.128Z,8.00
2019-03-26T17:29:36.899Z,9.97
2019-03-26T17:32:06.689Z,8.47
2019-03-26T17:34:36.479Z,17.27
2019-03-26T17:37:06.253Z,10.73
2019-03-26T17:39:36.045Z,9.50
2019-03-26T17:42:17.230Z,8.00
2019-03-26T17:44:44.571Z,11.83
2019-03-26T17:47:14.351Z,7.87
2019-03-26T17:49:45.778Z,8.00
2019-03-26T17:52:15.577Z,8.77
2019-03-26T17:54:45.330Z,9.23
2019-03-26T17:57:15.108Z,8.80
2019-03-26T17:59:44.862Z,12.57
2019-03-26T18:02:14.675Z,12.20
2019-03-26T18:04:44.433Z,10.27
2019-03-26T18:07:14.245Z,7.57
2019-03-26T18:09:43.980Z,8.40
2019-03-26T18:12:13.759Z,6.50
2019-03-26T18:14:43.497Z,10.50
2019-03-26T18:20:35.444Z,1.70
2019-03-26T18:23:05.225Z,8.17
2019-03-26T18:25:36.042Z,15.30
2019-03-26T18:28:10.772Z,15.30
2019-03-26T18:30:47.484Z,13.20
2019-03-26T18:33:17.691Z,13.00
2019-03-26T18:35:51.088Z,18.43
2019-03-26T18:38:29.814Z,11.23
2019-03-26T18:41:07.783Z,11.03
2019-03-26T22:17:36.834Z,12.23
2019-03-26T22:20:06.600Z,16.80
2019-03-26T22:22:36.382Z,14.00
2019-03-26T22:25:07.268Z,23.00
2019-03-26T22:27:37.019Z,29.80
2019-03-26T22:30:08.922Z,29.93
2019-03-26T22:32:38.679Z,54.30
2019-03-26T22:35:08.943Z,52.43
2019-03-26T22:37:38.708Z,54.90
2019-03-26T22:40:09.015Z,28.70
2019-03-26T22:42:38.767Z,29.27
2019-03-26T22:45:08.602Z,30.17
2019-03-26T22:47:40.560Z,37.67
2019-03-26T22:50:10.709Z,64.33
2019-03-26T22:52:43.118Z,97.90
2019-03-26T22:55:12.870Z,90.23
2019-03-26T22:57:42.638Z,98.77
2019-03-26T23:00:17.462Z,102.80
2019-03-26T23:02:47.237Z,92.33
2019-03-26T23:05:16.977Z,107.77
2019-03-26T23:07:46.750Z,82.93
2019-03-26T23:10:17.380Z,97.47
2019-03-26T23:12:47.172Z,86.63
2019-03-26T23:15:24.437Z,99.90
2019-03-26T23:17:54.199Z,157.53
2019-03-26T23:20:23.940Z,266.23
2019-03-26T23:22:53.802Z,186.57
2019-03-26T23:25:23.537Z,130.93
2019-03-26T23:27:53.376Z,145.40
2019-03-26T23:30:23.190Z,99.20
2019-03-26T23:32:52.991Z,99.40
2019-03-26T23:35:22.719Z,104.17
2019-03-26T23:37:57.379Z,106.27
2019-03-26T23:40:27.108Z,127.03
2019-03-26T23:42:56.880Z,167.87
2019-03-26T23:45:26.739Z,120.57
2019-03-26T23:47:56.503Z,113.40
2019-03-26T23:50:26.259Z,108.67
2019-03-26T23:52:56.055Z,112.57
2019-03-26T23:55:25.815Z,129.17
2019-03-26T23:57:55.589Z,155.90
